Time;durP1;ratioP1;P1;durP2;ratioP2;P2;SDS_P1;SDS_P2;PMS_P1;PMS_P2;Temp;Humidity;BMP_temperature;BMP_pressure;BME280_temperature;BME280_humidity;BME280_pressure;Samples;Min_cycle;Max_cycle;Signal;HPM_P1;HPM_P2
2023/01/19 00:01:23;;;;;;;6.47;4.72;;;5.20;80.00;;;;;;5080860;28;20035;-86
2023/01/19 00:03:49;;;;;;;6.10;4.78;;;5.20;80.00;;;;;;5078692;28;20044;-85
2023/01/19 00:06:15;;;;;;;6.05;4.90;;;5.20;80.00;;;;;;5086109;28;20078;-87
2023/01/19 00:08:44;;;;;;;5.75;4.82;;;5.20;80.00;;;;;;5051024;28;20781;-85
2023/01/19 00:11:11;;;;;;;6.28;5.15;;;5.20;80.00;;;;;;5079574;28;20059;-86
2023/01/19 00:13:38;;;;;;;5.53;4.75;;;5.20;80.00;;;;;;5082628;28;20035;-85
2023/01/19 00:16:05;;;;;;;5.60;4.63;;;5.20;80.00;;;;;;5080867;28;20024;-86
2023/01/19 00:18:31;;;;;;;5.85;4.63;;;5.20;80.00;;;;;;5079270;28;20050;-86
2023/01/19 00:20:56;;;;;;;6.30;5.03;;;5.30;80.30;;;;;;5082424;28;20091;-87
2023/01/19 00:23:22;;;;;;;5.65;4.70;;;5.30;80.00;;;;;;5077289;28;20043;-84
2023/01/19 00:25:50;;;;;;;7.63;5.35;;;5.20;79.90;;;;;;5092679;28;20036;-86
2023/01/19 00:28:17;;;;;;;5.53;4.70;;;5.30;80.00;;;;;;5063748;28;20028;-86
2023/01/19 00:30:43;;;;;;;6.72;4.88;;;5.30;80.00;;;;;;5090140;28;20464;-85
2023/01/19 00:33:13;;;;;;;6.40;5.10;;;5.30;80.00;;;;;;5073362;28;20039;-86
2023/01/19 00:35:41;;;;;;;6.85;5.53;;;5.30;80.00;;;;;;5086910;28;20472;-85
2023/01/19 00:38:10;;;;;;;6.50;5.35;;;5.30;80.00;;;;;;5083630;28;20031;-86
2023/01/19 00:40:35;;;;;;;5.95;4.82;;;5.30;80.00;;;;;;5062819;28;20036;-86
2023/01/19 00:43:02;;;;;;;6.00;5.00;;;5.30;80.00;;;;;;5060190;28;20024;-84
2023/01/19 00:45:29;;;;;;;7.32;5.45;;;5.30;80.00;;;;;;5070047;28;20059;-85
2023/01/19 00:47:58;;;;;;;6.57;5.47;;;5.30;80.00;;;;;;5066166;28;20051;-85
2023/01/19 00:50:29;;;;;;;5.72;4.70;;;5.30;80.00;;;;;;5079924;28;20035;-85
2023/01/19 00:52:56;;;;;;;6.55;5.35;;;5.30;80.00;;;;;;5094282;28;20024;-85
2023/01/19 00:55:22;;;;;;;6.35;5.35;;;5.30;80.60;;;;;;5080388;28;20031;-86
2023/01/19 00:57:48;;;;;;;6.30;5.18;;;5.30;80.00;;;;;;5079975;28;20031;-87
2023/01/19 01:00:18;;;;;;;7.10;5.70;;;5.30;80.00;;;;;;5060025;28;20511;-86
2023/01/19 01:02:44;;;;;;;6.95;5.05;;;5.30;80.00;;;;;;5077764;28;20032;-86
2023/01/19 01:05:10;;;;;;;6.28;4.90;;;5.30;80.00;;;;;;5060068;28;20032;-86
2023/01/19 01:07:40;;;;;;;6.40;5.40;;;5.30;80.00;;;;;;5079251;28;20024;-85
2023/01/19 01:10:27;;;;;;;6.20;4.90;;;5.30;80.00;;;;;;5077938;28;20027;-86
2023/01/19 01:12:53;;;;;;;6.60;5.20;;;5.30;80.00;;;;;;5077724;28;20033;-85
2023/01/19 01:15:20;;;;;;;6.82;5.25;;;5.30;80.00;;;;;;5075085;28;20503;-87
2023/01/19 01:17:46;;;;;;;5.97;5.13;;;5.30;80.00;;;;;;5075433;28;20032;-86
2023/01/19 01:20:17;;;;;;;6.25;5.07;;;5.30;80.00;;;;;;5073359;28;20081;-86
2023/01/19 01:22:46;;;;;;;6.20;4.95;;;5.40;80.10;;;;;;5074791;28;20485;-86
2023/01/19 01:25:16;;;;;;;5.93;5.05;;;5.40;80.00;;;;;;5091644;28;20031;-86
2023/01/19 01:27:42;;;;;;;7.75;5.78;;;5.40;80.00;;;;;;5093793;28;20097;-86
2023/01/19 01:30:11;;;;;;;6.65;5.20;;;5.40;80.00;;;;;;5096183;28;20032;-86
2023/01/19 01:32:37;;;;;;;6.05;5.28;;;5.40;80.10;;;;;;5092626;28;20024;-86
2023/01/19 01:35:04;;;;;;;6.15;5.05;;;5.40;80.00;;;;;;5096084;28;20048;-85
2023/01/19 01:37:30;;;;;;;6.03;4.90;;;5.40;80.00;;;;;;5061928;28;20113;-84
2023/01/19 01:39:55;;;;;;;6.88;5.50;;;5.40;80.00;;;;;;5091760;28;20124;-85
2023/01/19 01:42:26;;;;;;;7.00;5.55;;;5.40;80.00;;;;;;5093079;28;20035;-85
2023/01/19 01:44:57;;;;;;;6.45;5.43;;;5.40;80.10;;;;;;5079832;28;20031;-85
2023/01/19 01:47:41;;;;;;;6.15;4.88;;;5.40;80.00;;;;;;5090715;28;20036;-84
2023/01/19 01:50:09;;;;;;;7.45;5.78;;;5.40;80.10;;;;;;5096899;28;20517;-85
2023/01/19 01:52:44;;;;;;;6.30;4.88;;;5.40;80.10;;;;;;5094674;28;20031;-85
2023/01/19 01:55:11;;;;;;;6.40;5.30;;;5.40;80.10;;;;;;5074132;28;20634;-85
2023/01/19 01:57:42;;;;;;;7.55;5.13;;;5.40;80.10;;;;;;5094042;28;20059;-85
2023/01/19 02:00:09;;;;;;;6.40;4.95;;;5.40;80.00;;;;;;5080508;28;20077;-86
2023/01/19 02:02:51;;;;;;;6.05;4.65;;;5.40;80.00;;;;;;5085035;28;20102;-85
2023/01/19 02:05:21;;;;;;;6.13;5.05;;;5.40;80.00;;;;;;5064429;28;20044;-85
2023/01/19 02:13:47;;;;;;;6.53;5.10;;;5.40;80.00;;;;;;5072602;28;20035;-86
2023/01/19 02:16:14;;;;;;;6.90;4.95;;;5.40;80.10;;;;;;5094141;28;20043;-86
2023/01/19 02:18:41;;;;;;;6.22;5.00;;;5.40;80.10;;;;;;5068229;28;20035;-85
2023/01/19 02:21:26;;;;;;;6.88;5.32;;;5.40;80.10;;;;;;5066775;28;20528;-86
2023/01/19 02:23:57;;;;;;;5.72;4.80;;;5.40;80.10;;;;;;5064179;28;20048;-86
2023/01/19 02:26:30;;;;;;;5.82;4.75;;;5.40;80.10;;;;;;5052068;28;20404;-85
2023/01/19 02:29:04;;;;;;;5.93;5.20;;;5.40;80.10;;;;;;5052485;28;20033;-85
2023/01/19 02:31:32;;;;;;;5.57;4.97;;;5.50;80.20;;;;;;5046225;28;20025;-85
2023/01/19 02:34:00;;;;;;;5.28;4.57;;;5.40;80.10;;;;;;5060291;28;20025;-86
2023/01/19 02:36:36;;;;;;;5.22;4.45;;;5.40;80.10;;;;;;5033363;28;20123;-85
2023/01/19 02:39:03;;;;;;;6.15;4.90;;;5.50;80.20;;;;;;5030327;28;20028;-86
2023/01/19 02:41:37;;;;;;;6.07;5.00;;;5.40;80.20;;;;;;5035886;28;20179;-85
2023/01/19 02:44:05;;;;;;;5.77;4.73;;;5.40;80.20;;;;;;5056796;28;20028;-85
2023/01/19 02:46:31;;;;;;;4.97;4.32;;;5.40;80.10;;;;;;5048080;28;20566;-85
2023/01/19 02:48:58;;;;;;;7.43;4.88;;;5.40;80.20;;;;;;5034631;28;20086;-86
2023/01/19 02:51:25;;;;;;;6.15;4.85;;;5.40;80.20;;;;;;5049308;28;20035;-85
2023/01/19 02:54:02;;;;;;;5.68;4.65;;;5.50;80.20;;;;;;5035847;28;20106;-86
2023/01/19 02:56:49;;;;;;;6.13;4.72;;;5.40;80.10;;;;;;5046185;28;20033;-86
2023/01/19 02:59:30;;;;;;;5.75;4.70;;;5.40;80.10;;;;;;5065752;28;20428;-87
2023/01/19 03:02:34;;;;;;;5.93;4.63;;;5.40;80.10;;;;;;5044214;28;20103;-86
2023/01/19 03:05:32;;;;;;;5.80;4.65;;;5.40;80.20;;;;;;5051090;28;20017;-85
2023/01/19 03:08:29;;;;;;;5.43;4.30;;;5.40;80.10;;;;;;5050628;28;20029;-85
2023/01/19 03:11:12;;;;;;;5.60;4.53;;;5.40;80.10;;;;;;5048720;28;20470;-85
2023/01/19 03:13:57;;;;;;;5.22;4.10;;;5.40;80.10;;;;;;5050524;28;20350;-85
2023/01/19 03:16:44;;;;;;;5.03;4.13;;;5.40;80.20;;;;;;5039940;28;20087;-85
2023/01/19 03:19:22;;;;;;;5.00;3.90;;;5.40;80.20;;;;;;5047459;28;20026;-85
2023/01/19 03:21:53;;;;;;;6.10;4.13;;;5.40;80.30;;;;;;5052023;28;20032;-85
2023/01/19 03:24:21;;;;;;;5.18;4.18;;;5.30;80.30;;;;;;5086813;28;20051;-85
2023/01/19 03:27:14;;;;;;;5.13;4.18;;;5.30;80.30;;;;;;5069866;28;20048;-85
2023/01/19 03:29:45;;;;;;;5.07;4.20;;;5.30;80.30;;;;;;5050895;28;20130;-84
2023/01/19 03:32:14;;;;;;;6.25;4.15;;;5.30;80.30;;;;;;5073888;28;21398;-85
2023/01/19 03:34:42;;;;;;;4.57;3.53;;;5.30;80.30;;;;;;5058413;28;20037;-85
2023/01/19 03:37:10;;;;;;;4.65;3.53;;;5.30;80.30;;;;;;5041450;28;20035;-85
2023/01/19 03:39:36;;;;;;;5.20;4.10;;;5.30;80.30;;;;;;5094798;28;20476;-85
2023/01/19 03:42:05;;;;;;;5.07;4.05;;;5.30;80.30;;;;;;5079509;28;20115;-85
2023/01/19 03:44:36;;;;;;;4.45;3.83;;;5.30;80.30;;;;;;5048516;28;20435;-85
2023/01/19 03:47:03;;;;;;;5.63;3.97;;;5.30;80.30;;;;;;5067809;28;20038;-86
2023/01/19 03:49:33;;;;;;;4.43;3.53;;;5.30;80.40;;;;;;5084262;28;20027;-85
2023/01/19 03:51:59;;;;;;;4.28;3.50;;;5.30;80.30;;;;;;5083031;28;20031;-85
2023/01/19 03:54:25;;;;;;;3.75;3.35;;;5.30;80.40;;;;;;5086824;28;20119;-85
2023/01/19 03:56:51;;;;;;;4.80;3.50;;;5.30;80.40;;;;;;5073524;28;20032;-86
2023/01/19 03:59:18;;;;;;;3.80;3.40;;;5.30;80.40;;;;;;5058760;28;20546;-85
2023/01/19 04:01:45;;;;;;;4.78;3.70;;;5.30;81.00;;;;;;5062297;28;20024;-85
2023/01/19 04:04:12;;;;;;;4.07;3.30;;;5.30;80.40;;;;;;5057818;28;20037;-85
2023/01/19 04:06:38;;;;;;;3.25;2.95;;;5.30;80.40;;;;;;5079501;28;20087;-85
2023/01/19 04:09:04;;;;;;;3.35;3.03;;;5.30;80.30;;;;;;5073907;28;20044;-85
2023/01/19 04:11:30;;;;;;;3.20;2.90;;;5.30;80.40;;;;;;5091859;28;20085;-84
2023/01/19 04:13:56;;;;;;;3.47;2.92;;;5.30;80.40;;;;;;5073060;28;20032;-84
2023/01/19 04:16:22;;;;;;;3.20;2.85;;;5.20;80.30;;;;;;5057995;28;20468;-85
2023/01/19 04:18:48;;;;;;;2.80;2.53;;;5.20;80.30;;;;;;5065594;28;20035;-85
2023/01/19 04:21:15;;;;;;;2.67;2.40;;;5.20;80.40;;;;;;5074377;28;20495;-85
2023/01/19 04:23:43;;;;;;;3.20;2.70;;;5.20;81.00;;;;;;5075813;28;20053;-85
2023/01/19 04:26:09;;;;;;;2.65;2.30;;;5.20;80.40;;;;;;5079338;28;20024;-85
2023/01/19 04:28:35;;;;;;;2.90;2.60;;;5.20;80.40;;;;;;5063253;28;20039;-85
2023/01/19 04:31:02;;;;;;;2.58;2.38;;;5.20;80.40;;;;;;5077425;28;20020;-86
2023/01/19 04:33:28;;;;;;;2.83;2.33;;;5.20;80.40;;;;;;5089708;28;20032;-87
2023/01/19 04:35:54;;;;;;;2.50;2.30;;;5.20;80.40;;;;;;5092229;28;20032;-85
2023/01/19 04:38:21;;;;;;;3.08;2.20;;;5.20;80.40;;;;;;5067901;28;20028;-85
2023/01/19 04:40:52;;;;;;;2.15;2.03;;;5.20;80.40;;;;;;5080285;28;20027;-86
2023/01/19 04:43:21;;;;;;;2.45;2.20;;;5.20;80.40;;;;;;5087613;28;20381;-84
2023/01/19 04:45:48;;;;;;;2.70;2.50;;;5.20;80.40;;;;;;5084803;28;20707;-85
2023/01/19 04:48:14;;;;;;;2.17;1.98;;;5.20;80.40;;;;;;5082219;28;20115;-86
2023/01/19 04:50:40;;;;;;;2.08;1.90;;;5.20;80.40;;;;;;5084107;28;20488;-85
2023/01/19 04:53:07;;;;;;;2.20;2.00;;;5.20;80.40;;;;;;5078023;28;20031;-85
2023/01/19 04:55:33;;;;;;;2.40;2.20;;;5.20;80.50;;;;;;5064227;28;20032;-85
2023/01/19 04:57:59;;;;;;;2.20;2.00;;;5.20;80.40;;;;;;5073165;28;20080;-86
2023/01/19 05:00:25;;;;;;;2.38;2.00;;;5.20;80.40;;;;;;5084265;28;20032;-85
2023/01/19 05:02:52;;;;;;;2.38;2.17;;;5.20;80.40;;;;;;5067444;28;20024;-85
2023/01/19 05:05:18;;;;;;;2.47;2.00;;;5.20;80.40;;;;;;5049164;28;20068;-87
2023/01/19 05:07:44;;;;;;;2.40;2.20;;;5.20;80.40;;;;;;5090234;28;20050;-85
2023/01/19 05:10:10;;;;;;;1.92;1.83;;;5.20;80.40;;;;;;5064252;28;20029;-86
2023/01/19 05:12:36;;;;;;;2.25;2.05;;;5.20;80.40;;;;;;5095674;28;20077;-85
2023/01/19 05:15:02;;;;;;;3.13;1.90;;;5.20;80.40;;;;;;5094281;28;20044;-86
2023/01/19 05:17:28;;;;;;;2.03;1.92;;;5.20;80.40;;;;;;5077618;28;20118;-86
2023/01/19 05:19:54;;;;;;;2.08;1.88;;;5.20;80.40;;;;;;5077893;28;20479;-85
2023/01/19 05:22:20;;;;;;;2.00;1.90;;;5.20;80.40;;;;;;5062370;28;20032;-86
2023/01/19 05:24:45;;;;;;;1.88;1.77;;;5.10;80.40;;;;;;5066498;28;20518;-85
2023/01/19 05:27:11;;;;;;;1.77;1.67;;;5.10;80.40;;;;;;5083794;28;20028;-85
2023/01/19 05:29:37;;;;;;;1.70;1.60;;;5.10;80.40;;;;;;5080154;28;20028;-84
2023/01/19 05:32:03;;;;;;;2.30;1.88;;;5.10;80.30;;;;;;5094648;28;20066;-85
2023/01/19 05:34:28;;;;;;;1.73;1.63;;;5.20;80.40;;;;;;5058881;28;20072;-85
2023/01/19 05:36:54;;;;;;;1.80;1.70;;;5.10;80.40;;;;;;5080097;28;20031;-86
2023/01/19 05:39:20;;;;;;;2.38;1.83;;;5.10;80.40;;;;;;5059077;28;20432;-86
2023/01/19 05:41:46;;;;;;;2.05;1.80;;;5.10;80.40;;;;;;5094333;28;20422;-85
2023/01/19 05:44:12;;;;;;;2.00;1.80;;;5.20;80.40;;;;;;5071298;28;20070;-84
2023/01/19 05:46:39;;;;;;;1.80;1.70;;;5.10;80.70;;;;;;5083642;28;20473;-85
2023/01/19 05:49:06;;;;;;;2.00;1.88;;;5.10;80.40;;;;;;5095314;28;20028;-85
2023/01/19 05:51:37;;;;;;;2.00;1.80;;;5.20;80.40;;;;;;5080263;28;20035;-85
2023/01/19 05:54:07;;;;;;;2.15;1.92;;;5.20;80.40;;;;;;5084989;28;20033;-85
2023/01/19 05:56:34;;;;;;;1.85;1.70;;;5.10;80.40;;;;;;5085691;28;20116;-85
2023/01/19 05:59:00;;;;;;;1.60;1.50;;;5.10;80.40;;;;;;5081238;28;20114;-85
2023/01/19 06:01:27;;;;;;;1.85;1.65;;;5.10;80.40;;;;;;5097255;28;20028;-85
2023/01/19 06:03:53;;;;;;;1.70;1.60;;;5.10;80.40;;;;;;5080760;28;20045;-85
2023/01/19 06:06:19;;;;;;;1.90;1.80;;;5.10;80.40;;;;;;5100561;28;20048;-85
2023/01/19 06:08:45;;;;;;;1.80;1.70;;;5.10;80.40;;;;;;5074090;28;20469;-85
2023/01/19 06:11:11;;;;;;;1.67;1.58;;;5.10;80.40;;;;;;5062245;28;20066;-85
2023/01/19 06:13:38;;;;;;;2.33;1.88;;;5.10;80.40;;;;;;5091406;28;20111;-86
2023/01/19 06:16:05;;;;;;;1.77;1.67;;;5.10;80.30;;;;;;5063169;28;20089;-84
2023/01/19 06:18:31;;;;;;;2.10;1.85;;;5.10;80.30;;;;;;5090524;28;20106;-85
2023/01/19 06:20:57;;;;;;;1.70;1.60;;;5.10;80.30;;;;;;5084110;28;20028;-86
2023/01/19 06:23:30;;;;;;;1.70;1.60;;;5.10;80.40;;;;;;5073943;28;20083;-85
2023/01/19 06:25:56;;;;;;;1.60;1.50;;;5.10;80.40;;;;;;5080809;28;20046;-90
2023/01/19 06:28:22;;;;;;;1.70;1.60;;;5.10;80.40;;;;;;5058280;28;20492;-87
2023/01/19 06:30:49;;;;;;;1.70;1.60;;;5.10;80.40;;;;;;5091291;28;20051;-87
2023/01/19 06:33:16;;;;;;;1.85;1.60;;;5.10;80.40;;;;;;5092722;28;20028;-86
2023/01/19 06:35:47;;;;;;;2.05;1.60;;;5.10;80.40;;;;;;5059083;28;20066;-86
2023/01/19 06:38:13;;;;;;;2.20;1.90;;;5.10;80.40;;;;;;5065778;28;20077;-86
2023/01/19 06:40:39;;;;;;;1.75;1.65;;;5.10;80.40;;;;;;5080940;28;20508;-87
2023/01/19 06:43:06;;;;;;;2.55;1.80;;;5.10;80.40;;;;;;5083645;28;20287;-86
2023/01/19 06:45:33;;;;;;;3.00;1.60;;;5.10;80.40;;;;;;5076121;28;20031;-85
2023/01/19 06:47:59;;;;;;;1.70;1.60;;;5.10;81.00;;;;;;5096242;28;20047;-85
2023/01/19 06:50:25;;;;;;;1.63;1.52;;;5.10;80.40;;;;;;5083773;28;20032;-87
2023/01/19 06:52:51;;;;;;;1.60;1.50;;;5.10;80.40;;;;;;5079797;28;20070;-86
2023/01/19 06:55:16;;;;;;;1.52;1.42;;;5.10;80.40;;;;;;5078731;28;20123;-81
2023/01/19 06:57:43;;;;;;;1.73;1.63;;;5.10;80.40;;;;;;5092300;28;20449;-84
2023/01/19 07:00:12;;;;;;;1.60;1.50;;;5.10;80.40;;;;;;5077763;28;20046;-85
2023/01/19 07:02:43;;;;;;;1.60;1.50;;;5.10;80.40;;;;;;5079415;28;20122;-84
2023/01/19 07:05:13;;;;;;;1.60;1.50;;;5.10;80.40;;;;;;5080106;28;20059;-84
2023/01/19 07:07:39;;;;;;;2.58;1.67;;;5.10;80.40;;;;;;5058261;28;20028;-83
2023/01/19 07:10:07;;;;;;;1.90;1.75;;;5.10;80.40;;;;;;5079188;28;20054;-85
2023/01/19 07:12:33;;;;;;;1.60;1.50;;;5.10;80.40;;;;;;5047910;28;20032;-84
2023/01/19 07:14:59;;;;;;;1.90;1.70;;;5.10;80.40;;;;;;5075120;28;20050;-86
2023/01/19 07:17:24;;;;;;;1.98;1.70;;;5.10;80.40;;;;;;5059942;28;20458;-86
2023/01/19 07:19:50;;;;;;;1.88;1.50;;;5.10;80.40;;;;;;5095345;28;20065;-86
2023/01/19 07:22:16;;;;;;;1.83;1.60;;;5.10;80.40;;;;;;5095754;28;20064;-86
2023/01/19 07:24:42;;;;;;;2.90;1.90;;;5.10;80.40;;;;;;5071176;28;20052;-86
2023/01/19 07:27:10;;;;;;;1.85;1.60;;;5.20;80.50;;;;;;5054801;28;20082;-86
2023/01/19 07:29:36;;;;;;;1.88;1.70;;;5.10;80.40;;;;;;5072201;28;20040;-86
2023/01/19 07:32:02;;;;;;;1.88;1.77;;;5.10;80.40;;;;;;5058938;28;20033;-87
2023/01/19 07:34:28;;;;;;;1.90;1.60;;;5.10;81.00;;;;;;5061414;28;20033;-86
2023/01/19 07:36:55;;;;;;;2.08;1.67;;;5.10;80.30;;;;;;5073404;28;20039;-86
2023/01/19 07:39:20;;;;;;;1.60;1.50;;;5.20;80.40;;;;;;5072149;28;20045;-87
2023/01/19 07:41:49;;;;;;;2.75;1.77;;;5.10;80.30;;;;;;5055552;28;20060;-86
2023/01/19 07:44:15;;;;;;;2.05;1.80;;;5.10;80.40;;;;;;5086986;28;20028;-86
2023/01/19 07:46:42;;;;;;;2.17;1.60;;;5.10;80.40;;;;;;5070091;28;20093;-84
2023/01/19 07:49:08;;;;;;;1.70;1.55;;;5.10;80.40;;;;;;5072568;28;20519;-84
2023/01/19 07:51:35;;;;;;;1.80;1.70;;;5.10;80.40;;;;;;5069716;28;20066;-87
2023/01/19 07:54:00;;;;;;;1.83;1.73;;;5.10;80.40;;;;;;5072689;28;20094;-88
2023/01/19 07:56:29;;;;;;;1.70;1.60;;;5.20;80.40;;;;;;5053613;28;20036;-89
2023/01/19 07:58:55;;;;;;;1.70;1.60;;;5.20;80.40;;;;;;5054585;28;20063;-89
2023/01/19 08:01:20;;;;;;;1.80;1.70;;;5.20;80.40;;;;;;5081119;28;20473;-90
2023/01/19 08:03:47;;;;;;;1.85;1.75;;;5.10;80.40;;;;;;5060457;28;20031;-87
2023/01/19 08:06:22;;;;;;;1.88;1.52;;;5.10;80.40;;;;;;5074336;28;20032;-90
2023/01/19 08:08:48;;;;;;;2.65;1.80;;;5.20;80.50;;;;;;5075296;28;20033;-87
2023/01/19 08:11:14;;;;;;;1.90;1.70;;;5.20;80.40;;;;;;5080081;28;20023;-88
2023/01/19 08:13:40;;;;;;;2.00;1.90;;;5.20;80.40;;;;;;5081302;28;20075;-88
2023/01/19 08:16:06;;;;;;;1.90;1.80;;;5.20;80.40;;;;;;5078081;28;20119;-89
2023/01/19 08:18:32;;;;;;;2.25;2.05;;;5.20;80.40;;;;;;5074399;28;20500;-88
2023/01/19 08:20:58;;;;;;;2.35;1.80;;;5.20;80.40;;;;;;5058448;28;20128;-82
2023/01/19 08:23:24;;;;;;;1.73;1.63;;;5.20;80.40;;;;;;5075977;28;20076;-86
2023/01/19 08:25:50;;;;;;;1.98;1.80;;;5.20;80.40;;;;;;5075161;28;20117;-85
2023/01/19 08:28:16;;;;;;;2.08;1.70;;;5.20;80.40;;;;;;5058865;28;20075;-86
2023/01/19 08:30:43;;;;;;;2.03;1.90;;;5.20;80.40;;;;;;5072738;28;20028;-87
2023/01/19 08:33:10;;;;;;;3.03;2.00;;;5.20;80.40;;;;;;5075928;28;20028;-86
2023/01/19 08:35:41;;;;;;;1.75;1.65;;;5.20;80.40;;;;;;5059230;28;20040;-90
2023/01/19 08:38:09;;;;;;;2.78;2.08;;;5.20;80.40;;;;;;5074952;28;20051;-87
2023/01/19 08:40:37;;;;;;;2.25;1.95;;;5.20;80.40;;;;;;5088782;28;20033;-86
2023/01/19 08:43:06;;;;;;;2.70;2.05;;;5.20;80.40;;;;;;5070807;28;20025;-87
2023/01/19 08:45:45;;;;;;;1.98;1.77;;;5.20;80.40;;;;;;5056604;28;20044;-87
2023/01/19 08:48:12;;;;;;;2.92;2.20;;;5.20;80.40;;;;;;5055047;28;20053;-87
2023/01/19 08:50:38;;;;;;;2.08;1.88;;;5.20;80.40;;;;;;5071999;28;20099;-87
2023/01/19 08:53:07;;;;;;;4.65;2.28;;;5.20;80.40;;;;;;5057311;28;20136;-87
2023/01/19 08:55:36;;;;;;;3.10;2.10;;;5.20;80.40;;;;;;5073888;28;20032;-86
2023/01/19 08:58:03;;;;;;;2.83;2.17;;;5.20;80.40;;;;;;5073983;28;20127;-87
2023/01/19 09:00:33;;;;;;;2.75;2.20;;;5.20;80.40;;;;;;5075288;28;20532;-87
2023/01/19 09:03:02;;;;;;;2.33;2.13;;;5.20;80.40;;;;;;5076146;28;20499;-87
2023/01/19 09:05:30;;;;;;;2.80;2.20;;;5.20;80.40;;;;;;5075223;28;20028;-87
2023/01/19 09:07:56;;;;;;;2.65;2.17;;;5.20;80.40;;;;;;5073769;28;20032;-87
2023/01/19 09:10:22;;;;;;;3.83;2.65;;;5.20;80.40;;;;;;5057818;28;20043;-87
2023/01/19 09:12:49;;;;;;;3.17;2.60;;;5.20;80.40;;;;;;5057047;28;20092;-87
2023/01/19 09:15:14;;;;;;;2.58;2.33;;;5.20;80.40;;;;;;5050162;28;20044;-86
2023/01/19 09:17:43;;;;;;;2.33;2.13;;;5.20;80.40;;;;;;5073914;28;20029;-87
2023/01/19 09:20:09;;;;;;;2.40;2.20;;;5.20;80.40;;;;;;5057786;28;20063;-87
2023/01/19 09:22:35;;;;;;;2.83;2.20;;;5.20;80.40;;;;;;5041141;28;20070;-88
2023/01/19 09:25:01;;;;;;;2.80;2.28;;;5.20;80.40;;;;;;5073710;28;20056;-87
2023/01/19 09:27:27;;;;;;;2.38;2.17;;;5.20;80.70;;;;;;5073893;28;20088;-88
2023/01/19 09:29:52;;;;;;;2.88;2.10;;;5.20;80.40;;;;;;5073422;28;20038;-87
2023/01/19 09:32:19;;;;;;;3.05;2.22;;;5.30;80.40;;;;;;5073962;28;20052;-88
2023/01/19 09:34:45;;;;;;;2.50;2.20;;;5.30;80.40;;;;;;5081180;28;20040;-88
2023/01/19 09:37:11;;;;;;;2.53;2.33;;;5.30;80.40;;;;;;5057166;28;20035;-87
2023/01/19 09:39:37;;;;;;;4.13;2.47;;;5.30;80.40;;;;;;5055351;28;20028;-87
2023/01/19 09:42:19;;;;;;;2.95;2.60;;;5.30;80.40;;;;;;5056070;28;20039;-87
2023/01/19 09:44:48;;;;;;;2.72;2.30;;;5.30;80.50;;;;;;5073143;28;20028;-88
2023/01/19 09:47:17;;;;;;;2.85;2.47;;;5.30;80.40;;;;;;5074209;28;20321;-88
2023/01/19 09:49:48;;;;;;;2.80;2.22;;;5.30;80.70;;;;;;5074219;28;20027;-88
2023/01/19 09:52:14;;;;;;;2.50;2.30;;;5.30;80.40;;;;;;5074693;28;20054;-86
2023/01/19 09:54:46;;;;;;;3.00;2.45;;;5.30;80.40;;;;;;5073430;28;20040;-89
2023/01/19 09:57:13;;;;;;;2.60;2.40;;;5.30;80.50;;;;;;5074767;28;20534;-84
2023/01/19 09:59:42;;;;;;;2.40;2.20;;;5.30;80.40;;;;;;5073975;28;20187;-89
2023/01/19 10:02:17;;;;;;;3.42;2.95;;;5.30;80.40;;;;;;5070750;28;20033;-89
2023/01/19 10:04:58;;;;;;;2.95;2.60;;;5.40;80.50;;;;;;5070553;28;20099;-89
2023/01/19 10:08:07;;;;;;;5.68;2.55;;;5.40;80.50;;;;;;5073895;28;20044;-89
2023/01/19 10:10:35;;;;;;;3.13;2.70;;;5.40;80.50;;;;;;5071902;28;20035;-89
2023/01/19 10:13:11;;;;;;;2.58;2.25;;;5.40;80.40;;;;;;5073951;28;20028;-88
2023/01/19 10:15:44;;;;;;;2.72;2.28;;;5.40;80.50;;;;;;5076608;28;20404;-90
2023/01/19 10:18:34;;;;;;;2.75;2.17;;;5.40;80.50;;;;;;5057884;28;20393;-90
2023/01/19 10:21:40;;;;;;;3.83;2.30;;;5.40;80.50;;;;;;5073407;28;20066;-89
2023/01/19 10:24:16;;;;;;;;;;;5.40;80.50;;;;;;5077864;28;20134;-90
2023/01/19 10:26:46;;;;;;;4.55;2.63;;;5.40;80.30;;;;;;5075045;28;19915;-89
2023/01/19 10:29:29;;;;;;;2.53;2.10;;;5.40;80.30;;;;;;5095552;28;20024;-89
2023/01/19 10:32:10;;;;;;;2.67;2.30;;;5.50;80.50;;;;;;5084412;28;20076;-89
2023/01/19 10:34:36;;;;;;;3.33;2.00;;;5.50;80.50;;;;;;5102755;28;20027;-88
2023/01/19 10:37:26;;;;;;;2.63;2.22;;;5.50;80.40;;;;;;5082754;28;20081;-89
2023/01/19 10:39:56;;;;;;;2.40;2.00;;;5.50;80.60;;;;;;5077072;28;20073;-90
2023/01/19 10:42:21;;;;;;;2.00;1.80;;;5.50;80.40;;;;;;5078380;28;20093;-89
2023/01/19 10:44:49;;;;;;;3.75;2.30;;;5.50;80.50;;;;;;5103026;28;20508;-90
2023/01/19 10:47:17;;;;;;;2.40;2.10;;;5.50;80.50;;;;;;5067417;28;20036;-90
2023/01/19 10:49:43;;;;;;;2.70;2.10;;;5.60;80.60;;;;;;5095868;28;20024;-88
2023/01/19 10:52:18;;;;;;;3.10;2.10;;;5.60;80.60;;;;;;5093230;28;20032;-90
2023/01/19 10:54:47;;;;;;;3.33;2.65;;;5.60;80.60;;;;;;5079032;28;20032;-89
2023/01/19 10:57:37;;;;;;;4.22;2.22;;;5.60;80.60;;;;;;5065155;28;20032;-90
2023/01/19 11:00:06;;;;;;;2.63;2.33;;;5.60;80.60;;;;;;5090224;28;20031;-89
2023/01/19 11:02:32;;;;;;;2.97;2.40;;;5.70;80.60;;;;;;5093677;28;20023;-90
2023/01/19 11:05:00;;;;;;;3.03;2.20;;;5.70;80.60;;;;;;5050398;28;20032;-91
2023/01/19 11:07:29;;;;;;;2.35;2.15;;;5.70;80.60;;;;;;5086651;28;20038;-90
2023/01/19 11:10:16;;;;;;;4.07;2.47;;;5.70;80.60;;;;;;5083027;28;20154;-88
2023/01/19 11:13:11;;;;;;;2.47;2.28;;;5.70;80.70;;;;;;5097006;28;20031;-89
2023/01/19 11:15:42;;;;;;;3.28;2.70;;;5.80;80.70;;;;;;5058679;28;20461;-90
2023/01/19 11:18:21;;;;;;;3.60;2.50;;;5.80;80.60;;;;;;5080449;28;20044;-89
2023/01/19 11:20:51;;;;;;;3.50;2.70;;;5.80;80.70;;;;;;5079131;28;20059;-84
2023/01/19 11:23:27;;;;;;;3.30;2.70;;;5.80;80.60;;;;;;5084005;28;20049;-87
2023/01/19 11:25:56;;;;;;;3.50;2.40;;;5.80;80.70;;;;;;5066011;28;20032;-88
2023/01/19 11:28:38;;;;;;;2.88;2.58;;;5.80;80.60;;;;;;5054827;28;20082;-87
2023/01/19 11:31:10;;;;;;;4.63;2.97;;;5.90;80.70;;;;;;5058189;28;20035;-89
2023/01/19 11:33:51;;;;;;;3.17;2.67;;;5.90;80.70;;;;;;5057394;28;20028;-87
2023/01/19 11:36:17;;;;;;;3.47;2.97;;;5.90;80.70;;;;;;5068225;28;20025;-86
2023/01/19 11:38:44;;;;;;;3.40;2.97;;;5.90;80.70;;;;;;5078312;28;20025;-85
2023/01/19 11:41:32;;;;;;;3.90;3.10;;;5.90;80.70;;;;;;5070303;28;20021;-85
2023/01/19 11:44:22;;;;;;;4.18;2.92;;;5.90;80.70;;;;;;5072438;28;20039;-85
2023/01/19 11:46:59;;;;;;;5.82;3.30;;;5.90;80.70;;;;;;5083735;28;20043;-86
2023/01/19 11:49:41;;;;;;;3.78;2.92;;;6.00;80.70;;;;;;5071416;28;20025;-86
2023/01/19 11:52:15;;;;;;;4.50;3.08;;;6.00;80.80;;;;;;5071435;28;20484;-85
2023/01/19 11:55:06;;;;;;;4.57;3.50;;;6.00;80.80;;;;;;5071123;28;20086;-87
2023/01/19 11:57:32;;;;;;;3.78;3.03;;;6.00;80.80;;;;;;5065966;28;20569;-86
2023/01/19 12:00:02;;;;;;;5.10;3.72;;;6.00;80.80;;;;;;5054592;28;20123;-88
2023/01/19 12:02:43;;;;;;;4.57;3.45;;;6.00;80.80;;;;;;5074104;28;20481;-86
2023/01/19 12:05:14;;;;;;;6.28;3.42;;;6.00;80.90;;;;;;5079514;28;20047;-88
2023/01/19 12:07:43;;;;;;;4.43;3.30;;;6.00;80.80;;;;;;5076705;28;20082;-90
2023/01/19 12:10:22;;;;;;;5.88;3.90;;;6.00;80.90;;;;;;5071867;28;20477;-89
2023/01/19 12:12:48;;;;;;;5.43;3.70;;;6.10;80.90;;;;;;5072263;28;20021;-88
2023/01/19 12:15:40;;;;;;;5.65;3.90;;;6.10;80.90;;;;;;5075611;28;20056;-88
2023/01/19 12:18:13;;;;;;;5.30;3.70;;;6.10;80.90;;;;;;5068549;28;20029;-88
2023/01/19 12:20:43;;;;;;;5.35;3.70;;;6.10;80.90;;;;;;5061636;28;20042;-88
2023/01/19 12:23:27;;;;;;;6.47;4.47;;;6.10;80.90;;;;;;5076821;28;20036;-88
2023/01/19 12:25:59;;;;;;;5.43;4.23;;;6.10;80.90;;;;;;5082833;28;20468;-88
2023/01/19 12:28:32;;;;;;;5.60;4.15;;;6.10;80.90;;;;;;5092141;28;20807;-88
2023/01/19 12:31:00;;;;;;;5.85;3.83;;;6.20;80.90;;;;;;5081550;28;20469;-88
2023/01/19 12:33:33;;;;;;;6.07;4.25;;;6.20;80.90;;;;;;5079606;28;20255;-88
2023/01/19 12:36:02;;;;;;;5.55;4.13;;;6.20;80.90;;;;;;5084444;28;20078;-88
2023/01/19 12:38:31;;;;;;;5.10;4.13;;;6.20;80.90;;;;;;5077193;28;20031;-88
2023/01/19 12:41:36;;;;;;;5.22;4.00;;;6.30;81.00;;;;;;5078736;28;20028;-91
2023/01/19 12:44:12;;;;;;;5.22;3.85;;;6.30;81.00;;;;;;5002496;28;20025;-90
2023/01/19 12:47:02;;;;;;;6.57;4.30;;;6.30;80.90;;;;;;5065907;28;20028;-90
2023/01/19 12:49:43;;;;;;;6.20;3.88;;;6.30;80.90;;;;;;5095379;28;20032;-90
2023/01/19 12:52:37;;;;;;;6.03;4.13;;;6.40;80.90;;;;;;5092865;28;20032;-91
2023/01/19 12:55:13;;;;;;;6.43;4.38;;;6.30;80.90;;;;;;5081559;28;20031;-90
2023/01/19 12:57:50;;;;;;;;;;;6.40;80.90;;;;;;5084280;28;20024;-90
2023/01/19 13:00:22;;;;;;;4.93;3.35;;;6.40;80.70;;;;;;5092860;28;19931;-90
2023/01/19 13:02:51;;;;;;;5.28;3.80;;;6.40;80.70;;;;;;5085907;28;20063;-91
2023/01/19 13:05:22;;;;;;;6.13;3.70;;;6.40;80.80;;;;;;5061257;28;20037;-89
2023/01/19 13:08:09;;;;;;;4.57;3.65;;;6.50;80.90;;;;;;5090411;28;20027;-89
2023/01/19 13:10:53;;;;;;;5.70;3.50;;;6.50;81.00;;;;;;5074128;28;20035;-90
2023/01/19 13:13:29;;;;;;;5.03;3.90;;;6.50;80.90;;;;;;5086274;28;20055;-91
2023/01/19 13:15:57;;;;;;;5.55;3.45;;;6.60;80.90;;;;;;5096110;28;20036;-89
2023/01/19 13:18:34;;;;;;;5.03;3.83;;;6.60;80.80;;;;;;5094096;28;20456;-90
2023/01/19 13:21:05;;;;;;;4.60;3.30;;;6.60;80.80;;;;;;5089835;28;20051;-88